Lake Camelot, Illinois
Current Conditions -  °F | °C
As of 4:27 PM on Sunday 25 Jan 2015 (Local Time) from KPIA Reporting Station
Overcast Overcast  
Wind Chill: 18°   Ceiling: 1500
Heat Index: 30°   Visibility: 10mi
Dew Point: 24°   Wind: 17mph
Humidity: 79%   Direction: 30°NNE
Pressure: 29.86"   Gusts: 29mph
Location:  40.5976°N, 89.727°W
Report Text: KPIA 252227Z 03015G25KT 10SM BKN015 OVC055 M01/M04 A2986 RMK AO2 PK WND 03027/2210 UPE01 P0000 T10111044
Loading
Personal Weather Stations






























Interactive Weather Map New forecast layout! Learn more

10-Day Weather Forecast

Advertisements
Track Severe Weather on mobile